sensor_id;sensor_type;location;lat;lon;timestamp;pressure;altitude;pressure_sealevel;temperature;humidity
76728;BME280;65652;53.132;18.026;2023-07-20T00:02:01;100509.59;;;17.29;68.90
76728;BME280;65652;53.132;18.026;2023-07-20T00:04:28;100503.27;;;17.28;69.01
76728;BME280;65652;53.132;18.026;2023-07-20T00:06:54;100495.94;;;17.28;69.17
76728;BME280;65652;53.132;18.026;2023-07-20T00:09:21;100496.61;;;17.28;69.49
76728;BME280;65652;53.132;18.026;2023-07-20T00:11:51;100498.75;;;17.28;69.46
76728;BME280;65652;53.132;18.026;2023-07-20T00:14:17;100498.61;;;17.28;69.76
76728;BME280;65652;53.132;18.026;2023-07-20T00:16:47;100499.00;;;17.26;69.85
76728;BME280;65652;53.132;18.026;2023-07-20T00:19:15;100502.55;;;17.25;69.64
76728;BME280;65652;53.132;18.026;2023-07-20T00:21:42;100508.22;;;17.24;69.65
76728;BME280;65652;53.132;18.026;2023-07-20T00:24:08;100510.31;;;17.24;69.83
76728;BME280;65652;53.132;18.026;2023-07-20T00:26:34;100511.95;;;17.23;69.97
76728;BME280;65652;53.132;18.026;2023-07-20T00:29:00;100508.94;;;17.22;69.95
76728;BME280;65652;53.132;18.026;2023-07-20T00:31:27;100503.53;;;17.24;69.78
76728;BME280;65652;53.132;18.026;2023-07-20T00:33:53;100511.36;;;17.26;70.15
76728;BME280;65652;53.132;18.026;2023-07-20T00:36:19;100521.16;;;17.26;70.08
76728;BME280;65652;53.132;18.026;2023-07-20T00:38:45;100522.11;;;17.24;70.04
76728;BME280;65652;53.132;18.026;2023-07-20T00:41:11;100519.95;;;17.26;70.10
76728;BME280;65652;53.132;18.026;2023-07-20T00:43:40;100514.77;;;17.29;70.03
76728;BME280;65652;53.132;18.026;2023-07-20T00:46:07;100502.50;;;17.31;70.15
76728;BME280;65652;53.132;18.026;2023-07-20T00:48:34;100501.38;;;17.33;70.15
76728;BME280;65652;53.132;18.026;2023-07-20T00:51:00;100501.98;;;17.34;70.17
76728;BME280;65652;53.132;18.026;2023-07-20T00:53:28;100500.46;;;17.35;70.11
76728;BME280;65652;53.132;18.026;2023-07-20T00:55:55;100503.70;;;17.36;69.98
76728;BME280;65652;53.132;18.026;2023-07-20T00:58:22;100506.17;;;17.36;70.02
76728;BME280;65652;53.132;18.026;2023-07-20T01:00:48;100505.97;;;17.37;69.94
76728;BME280;65652;53.132;18.026;2023-07-20T01:03:14;100506.62;;;17.36;69.71
76728;BME280;65652;53.132;18.026;2023-07-20T01:05:52;100510.48;;;17.35;69.54
76728;BME280;65652;53.132;18.026;2023-07-20T01:11:16;100507.45;;;17.32;69.43
76728;BME280;65652;53.132;18.026;2023-07-20T01:13:43;100509.38;;;17.31;69.29
76728;BME280;65652;53.132;18.026;2023-07-20T01:16:09;100510.61;;;17.26;69.22
76728;BME280;65652;53.132;18.026;2023-07-20T01:18:35;100513.73;;;17.24;69.24
76728;BME280;65652;53.132;18.026;2023-07-20T01:21:09;100509.65;;;17.21;69.29
76728;BME280;65652;53.132;18.026;2023-07-20T01:32:33;100515.60;;;17.09;69.65
76728;BME280;65652;53.132;18.026;2023-07-20T01:35:01;100515.63;;;17.05;69.82
76728;BME280;65652;53.132;18.026;2023-07-20T01:37:30;100513.65;;;17.02;70.09
76728;BME280;65652;53.132;18.026;2023-07-20T01:39:57;100509.62;;;16.99;70.05
76728;BME280;65652;53.132;18.026;2023-07-20T01:42:24;100507.59;;;16.98;69.93
76728;BME280;65652;53.132;18.026;2023-07-20T01:44:51;100509.31;;;16.98;70.03
76728;BME280;65652;53.132;18.026;2023-07-20T01:47:18;100509.27;;;16.98;70.09
76728;BME280;65652;53.132;18.026;2023-07-20T01:49:44;100510.40;;;16.97;70.03
76728;BME280;65652;53.132;18.026;2023-07-20T01:52:11;100510.11;;;16.94;70.03
76728;BME280;65652;53.132;18.026;2023-07-20T01:54:37;100509.30;;;16.93;70.09
76728;BME280;65652;53.132;18.026;2023-07-20T01:57:03;100508.97;;;16.92;70.02
76728;BME280;65652;53.132;18.026;2023-07-20T01:59:30;100511.57;;;16.93;69.94
76728;BME280;65652;53.132;18.026;2023-07-20T02:01:56;100518.45;;;16.93;70.14
76728;BME280;65652;53.132;18.026;2023-07-20T02:04:22;100519.73;;;16.93;70.00
76728;BME280;65652;53.132;18.026;2023-07-20T02:06:48;100523.65;;;16.90;70.14
76728;BME280;65652;53.132;18.026;2023-07-20T02:09:14;100524.06;;;16.85;70.12
76728;BME280;65652;53.132;18.026;2023-07-20T02:11:40;100521.04;;;16.82;70.12
76728;BME280;65652;53.132;18.026;2023-07-20T02:14:06;100523.61;;;16.80;70.06
76728;BME280;65652;53.132;18.026;2023-07-20T02:16:32;100523.73;;;16.79;70.25
76728;BME280;65652;53.132;18.026;2023-07-20T02:18:59;100529.20;;;16.76;70.32
76728;BME280;65652;53.132;18.026;2023-07-20T02:21:25;100534.24;;;16.73;70.26
76728;BME280;65652;53.132;18.026;2023-07-20T02:23:51;100534.69;;;16.71;70.29
76728;BME280;65652;53.132;18.026;2023-07-20T02:26:18;100531.86;;;16.69;70.13
76728;BME280;65652;53.132;18.026;2023-07-20T02:28:44;100527.31;;;16.67;69.97
76728;BME280;65652;53.132;18.026;2023-07-20T02:31:11;100526.02;;;16.64;69.87
76728;BME280;65652;53.132;18.026;2023-07-20T02:33:37;100524.89;;;16.60;69.92
76728;BME280;65652;53.132;18.026;2023-07-20T02:36:04;100522.59;;;16.57;70.01
76728;BME280;65652;53.132;18.026;2023-07-20T02:38:30;100521.86;;;16.54;70.03
76728;BME280;65652;53.132;18.026;2023-07-20T02:40:56;100517.36;;;16.53;70.08
76728;BME280;65652;53.132;18.026;2023-07-20T02:43:22;100512.45;;;16.52;70.10
76728;BME280;65652;53.132;18.026;2023-07-20T02:45:50;100508.35;;;16.52;69.99
76728;BME280;65652;53.132;18.026;2023-07-20T02:48:16;100508.46;;;16.54;70.09
76728;BME280;65652;53.132;18.026;2023-07-20T02:50:43;100507.02;;;16.56;70.00
76728;BME280;65652;53.132;18.026;2023-07-20T02:53:09;100508.59;;;16.58;70.08
76728;BME280;65652;53.132;18.026;2023-07-20T02:55:36;100516.09;;;16.59;70.14
76728;BME280;65652;53.132;18.026;2023-07-20T02:58:02;100510.30;;;16.60;70.27
76728;BME280;65652;53.132;18.026;2023-07-20T03:00:28;100510.30;;;16.60;70.38
76728;BME280;65652;53.132;18.026;2023-07-20T03:02:55;100513.52;;;16.60;70.30
76728;BME280;65652;53.132;18.026;2023-07-20T03:05:22;100516.08;;;16.61;70.49
76728;BME280;65652;53.132;18.026;2023-07-20T03:07:51;100517.55;;;16.62;70.42
76728;BME280;65652;53.132;18.026;2023-07-20T03:10:17;100519.81;;;16.64;70.36
76728;BME280;65652;53.132;18.026;2023-07-20T03:12:43;100518.73;;;16.65;70.26
76728;BME280;65652;53.132;18.026;2023-07-20T03:15:10;100520.84;;;16.66;70.17
76728;BME280;65652;53.132;18.026;2023-07-20T03:17:36;100524.54;;;16.67;70.04
76728;BME280;65652;53.132;18.026;2023-07-20T03:20:04;100518.45;;;16.69;70.12
76728;BME280;65652;53.132;18.026;2023-07-20T03:22:35;100521.52;;;16.71;70.09
76728;BME280;65652;53.132;18.026;2023-07-20T03:25:01;100521.80;;;16.71;69.92
76728;BME280;65652;53.132;18.026;2023-07-20T03:27:27;100518.61;;;16.71;69.90
76728;BME280;65652;53.132;18.026;2023-07-20T03:29:55;100517.05;;;16.72;69.90
76728;BME280;65652;53.132;18.026;2023-07-20T03:32:21;100519.16;;;16.72;69.85
76728;BME280;65652;53.132;18.026;2023-07-20T03:34:47;100517.21;;;16.72;69.90
76728;BME280;65652;53.132;18.026;2023-07-20T03:37:14;100522.40;;;16.72;69.88
76728;BME280;65652;53.132;18.026;2023-07-20T03:39:40;100526.55;;;16.71;69.79
76728;BME280;65652;53.132;18.026;2023-07-20T03:42:07;100525.58;;;16.72;69.65
76728;BME280;65652;53.132;18.026;2023-07-20T03:44:33;100524.20;;;16.73;69.67
76728;BME280;65652;53.132;18.026;2023-07-20T03:46:59;100524.50;;;16.74;69.27
76728;BME280;65652;53.132;18.026;2023-07-20T03:49:25;100528.14;;;16.75;69.37
76728;BME280;65652;53.132;18.026;2023-07-20T03:51:51;100525.83;;;16.76;69.13
76728;BME280;65652;53.132;18.026;2023-07-20T03:54:19;100526.80;;;16.74;69.12
76728;BME280;65652;53.132;18.026;2023-07-20T03:56:45;100525.42;;;16.72;69.03
76728;BME280;65652;53.132;18.026;2023-07-20T03:59:11;100525.31;;;16.71;68.88
76728;BME280;65652;53.132;18.026;2023-07-20T04:01:38;100525.70;;;16.70;68.94
76728;BME280;65652;53.132;18.026;2023-07-20T04:04:06;100521.13;;;16.68;68.93
76728;BME280;65652;53.132;18.026;2023-07-20T04:06:33;100521.88;;;16.64;69.01
76728;BME280;65652;53.132;18.026;2023-07-20T04:08:59;100522.44;;;16.64;68.99
76728;BME280;65652;53.132;18.026;2023-07-20T04:11:25;100524.15;;;16.65;68.97
76728;BME280;65652;53.132;18.026;2023-07-20T04:13:52;100530.13;;;16.67;68.98
76728;BME280;65652;53.132;18.026;2023-07-20T04:16:18;100529.22;;;16.70;68.88
76728;BME280;65652;53.132;18.026;2023-07-20T04:18:45;100529.74;;;16.75;68.86
76728;BME280;65652;53.132;18.026;2023-07-20T04:21:11;100533.90;;;16.77;68.81
76728;BME280;65652;53.132;18.026;2023-07-20T04:23:38;100536.27;;;16.82;68.70
76728;BME280;65652;53.132;18.026;2023-07-20T04:26:04;100535.13;;;16.85;68.60
76728;BME280;65652;53.132;18.026;2023-07-20T04:28:32;100532.84;;;16.89;68.58
76728;BME280;65652;53.132;18.026;2023-07-20T04:31:12;100534.52;;;16.93;68.35
76728;BME280;65652;53.132;18.026;2023-07-20T04:33:39;100534.45;;;16.98;68.51
76728;BME280;65652;53.132;18.026;2023-07-20T04:36:06;100532.50;;;17.03;68.25
76728;BME280;65652;53.132;18.026;2023-07-20T04:38:34;100530.36;;;17.07;68.29
76728;BME280;65652;53.132;18.026;2023-07-20T04:41:17;100530.87;;;17.12;68.20
76728;BME280;65652;53.132;18.026;2023-07-20T04:43:46;100531.09;;;17.17;68.09
76728;BME280;65652;53.132;18.026;2023-07-20T04:46:15;100536.86;;;17.22;67.92
76728;BME280;65652;53.132;18.026;2023-07-20T04:48:43;100538.93;;;17.27;67.69
76728;BME280;65652;53.132;18.026;2023-07-20T04:51:09;100537.63;;;17.30;67.56
76728;BME280;65652;53.132;18.026;2023-07-20T04:53:36;100531.71;;;17.33;67.50
76728;BME280;65652;53.132;18.026;2023-07-20T04:56:03;100531.41;;;17.38;67.36
76728;BME280;65652;53.132;18.026;2023-07-20T04:58:29;100532.40;;;17.43;67.02
76728;BME280;65652;53.132;18.026;2023-07-20T05:00:56;100535.67;;;17.49;66.97
76728;BME280;65652;53.132;18.026;2023-07-20T05:03:22;100533.92;;;17.52;66.92
76728;BME280;65652;53.132;18.026;2023-07-20T05:05:48;100534.11;;;17.54;66.62
76728;BME280;65652;53.132;18.026;2023-07-20T05:08:15;100530.80;;;17.53;66.54
76728;BME280;65652;53.132;18.026;2023-07-20T05:10:42;100531.14;;;17.54;66.38
76728;BME280;65652;53.132;18.026;2023-07-20T05:13:08;100532.30;;;17.54;66.35
76728;BME280;65652;53.132;18.026;2023-07-20T05:15:35;100532.61;;;17.58;66.40
76728;BME280;65652;53.132;18.026;2023-07-20T05:18:02;100530.04;;;17.62;66.35
76728;BME280;65652;53.132;18.026;2023-07-20T05:20:28;100538.14;;;17.68;66.18
76728;BME280;65652;53.132;18.026;2023-07-20T05:22:55;100536.94;;;17.73;66.31
76728;BME280;65652;53.132;18.026;2023-07-20T05:25:21;100537.40;;;17.84;66.40
76728;BME280;65652;53.132;18.026;2023-07-20T05:27:48;100538.73;;;17.98;66.37
76728;BME280;65652;53.132;18.026;2023-07-20T05:30:15;100541.44;;;18.08;65.80
76728;BME280;65652;53.132;18.026;2023-07-20T05:32:41;100543.21;;;18.11;65.46
76728;BME280;65652;53.132;18.026;2023-07-20T05:35:08;100541.17;;;18.16;65.52
76728;BME280;65652;53.132;18.026;2023-07-20T05:37:34;100539.16;;;18.22;65.76
76728;BME280;65652;53.132;18.026;2023-07-20T05:40:00;100539.96;;;18.32;65.36
76728;BME280;65652;53.132;18.026;2023-07-20T05:42:27;100545.17;;;18.40;64.78
76728;BME280;65652;53.132;18.026;2023-07-20T05:44:53;100542.00;;;18.44;64.28
76728;BME280;65652;53.132;18.026;2023-07-20T05:47:21;100544.95;;;18.45;64.20
76728;BME280;65652;53.132;18.026;2023-07-20T05:49:47;100547.02;;;18.43;64.02
76728;BME280;65652;53.132;18.026;2023-07-20T05:52:13;100544.83;;;18.40;63.88
76728;BME280;65652;53.132;18.026;2023-07-20T05:54:39;100545.05;;;18.43;64.50
76728;BME280;65652;53.132;18.026;2023-07-20T05:57:05;100542.33;;;18.56;63.93
76728;BME280;65652;53.132;18.026;2023-07-20T05:59:31;100544.56;;;18.67;63.50
76728;BME280;65652;53.132;18.026;2023-07-20T06:01:58;100546.91;;;18.77;63.23
76728;BME280;65652;53.132;18.026;2023-07-20T06:04:24;100543.52;;;18.89;62.98
76728;BME280;65652;53.132;18.026;2023-07-20T06:06:50;100538.27;;;18.97;62.75
76728;BME280;65652;53.132;18.026;2023-07-20T06:09:16;100537.84;;;19.09;62.64
76728;BME280;65652;53.132;18.026;2023-07-20T06:11:42;100541.09;;;19.21;62.21
76728;BME280;65652;53.132;18.026;2023-07-20T06:14:09;100540.01;;;19.34;61.63
76728;BME280;65652;53.132;18.026;2023-07-20T06:16:35;100540.28;;;19.47;60.99
76728;BME280;65652;53.132;18.026;2023-07-20T06:19:01;100538.36;;;19.58;60.75
76728;BME280;65652;53.132;18.026;2023-07-20T06:21:27;100536.09;;;19.69;60.50
76728;BME280;65652;53.132;18.026;2023-07-20T06:23:53;100534.77;;;19.79;60.27
76728;BME280;65652;53.132;18.026;2023-07-20T06:26:19;100539.58;;;19.87;59.60
76728;BME280;65652;53.132;18.026;2023-07-20T06:28:46;100532.48;;;19.95;59.46
76728;BME280;65652;53.132;18.026;2023-07-20T06:31:12;100536.79;;;20.03;59.14
76728;BME280;65652;53.132;18.026;2023-07-20T06:33:38;100534.41;;;20.08;58.84
76728;BME280;65652;53.132;18.026;2023-07-20T06:36:05;100536.52;;;20.16;58.50
76728;BME280;65652;53.132;18.026;2023-07-20T06:38:31;100532.67;;;20.18;58.07
76728;BME280;65652;53.132;18.026;2023-07-20T06:40:57;100535.79;;;20.16;57.87
76728;BME280;65652;53.132;18.026;2023-07-20T06:43:23;100534.98;;;20.20;57.69
76728;BME280;65652;53.132;18.026;2023-07-20T06:45:52;100535.23;;;20.20;57.71
76728;BME280;65652;53.132;18.026;2023-07-20T06:48:22;100536.48;;;20.28;57.56
76728;BME280;65652;53.132;18.026;2023-07-20T06:50:48;100537.49;;;20.48;57.27
76728;BME280;65652;53.132;18.026;2023-07-20T06:53:14;100537.27;;;20.83;56.66
76728;BME280;65652;53.132;18.026;2023-07-20T06:55:42;100537.37;;;21.22;56.05
76728;BME280;65652;53.132;18.026;2023-07-20T06:58:08;100532.61;;;21.62;55.30
76728;BME280;65652;53.132;18.026;2023-07-20T07:00:34;100534.10;;;21.97;54.18
76728;BME280;65652;53.132;18.026;2023-07-20T07:03:00;100533.67;;;22.22;53.91
76728;BME280;65652;53.132;18.026;2023-07-20T07:05:27;100535.20;;;22.38;53.57
76728;BME280;65652;53.132;18.026;2023-07-20T07:07:53;100535.57;;;22.30;53.00
76728;BME280;65652;53.132;18.026;2023-07-20T07:10:19;100535.98;;;22.12;52.96
76728;BME280;65652;53.132;18.026;2023-07-20T07:12:45;100537.60;;;22.05;53.01
76728;BME280;65652;53.132;18.026;2023-07-20T07:15:11;100537.17;;;22.16;52.14
76728;BME280;65652;53.132;18.026;2023-07-20T07:17:37;100538.86;;;22.22;51.95
76728;BME280;65652;53.132;18.026;2023-07-20T07:20:05;100536.08;;;22.23;51.87
76728;BME280;65652;53.132;18.026;2023-07-20T07:22:31;100536.72;;;22.32;51.48
76728;BME280;65652;53.132;18.026;2023-07-20T07:24:58;100535.70;;;22.48;51.23
76728;BME280;65652;53.132;18.026;2023-07-20T07:27:24;100533.85;;;22.77;50.92
76728;BME280;65652;53.132;18.026;2023-07-20T07:29:50;100531.67;;;23.15;50.23
76728;BME280;65652;53.132;18.026;2023-07-20T07:32:16;100537.10;;;23.46;48.78
76728;BME280;65652;53.132;18.026;2023-07-20T07:34:43;100538.08;;;23.58;47.69
76728;BME280;65652;53.132;18.026;2023-07-20T07:37:12;100536.00;;;23.48;48.18
76728;BME280;65652;53.132;18.026;2023-07-20T07:39:39;100538.45;;;23.32;47.64
76728;BME280;65652;53.132;18.026;2023-07-20T07:42:05;100540.36;;;23.25;48.36
76728;BME280;65652;53.132;18.026;2023-07-20T07:44:32;100535.32;;;23.33;47.91
76728;BME280;65652;53.132;18.026;2023-07-20T07:46:58;100538.61;;;23.54;47.87
76728;BME280;65652;53.132;18.026;2023-07-20T07:49:24;100535.35;;;23.81;46.54
76728;BME280;65652;53.132;18.026;2023-07-20T07:51:50;100536.97;;;24.02;45.81
76728;BME280;65652;53.132;18.026;2023-07-20T07:54:16;100539.57;;;23.85;44.99
76728;BME280;65652;53.132;18.026;2023-07-20T07:56:42;100540.42;;;23.41;45.11
76728;BME280;65652;53.132;18.026;2023-07-20T07:59:10;100542.98;;;23.17;45.74
76728;BME280;65652;53.132;18.026;2023-07-20T08:01:36;100540.95;;;22.97;46.28
76728;BME280;65652;53.132;18.026;2023-07-20T08:04:02;100535.87;;;22.76;46.68
76728;BME280;65652;53.132;18.026;2023-07-20T08:06:29;100541.55;;;22.94;46.52
76728;BME280;65652;53.132;18.026;2023-07-20T08:08:55;100537.64;;;23.27;46.10
76728;BME280;65652;53.132;18.026;2023-07-20T08:11:21;100532.43;;;23.40;45.90
76728;BME280;65652;53.132;18.026;2023-07-20T08:13:48;100533.40;;;23.38;45.06
76728;BME280;65652;53.132;18.026;2023-07-20T08:16:14;100534.04;;;23.72;44.72
76728;BME280;65652;53.132;18.026;2023-07-20T08:18:40;100531.98;;;23.80;44.23
76728;BME280;65652;53.132;18.026;2023-07-20T08:21:06;100532.73;;;23.91;44.51
76728;BME280;65652;53.132;18.026;2023-07-20T08:23:32;100529.67;;;23.78;44.11
76728;BME280;65652;53.132;18.026;2023-07-20T08:25:58;100529.98;;;23.49;44.92
76728;BME280;65652;53.132;18.026;2023-07-20T08:28:24;100531.05;;;23.39;45.03
76728;BME280;65652;53.132;18.026;2023-07-20T08:30:52;100533.33;;;23.26;45.12
76728;BME280;65652;53.132;18.026;2023-07-20T08:33:19;100536.59;;;23.52;44.55
76728;BME280;65652;53.132;18.026;2023-07-20T08:35:46;100535.41;;;23.90;44.02
76728;BME280;65652;53.132;18.026;2023-07-20T08:38:13;100530.80;;;24.10;43.91
76728;BME280;65652;53.132;18.026;2023-07-20T08:40:41;100528.22;;;24.44;43.49
76728;BME280;65652;53.132;18.026;2023-07-20T08:43:08;100526.66;;;24.84;42.89
76728;BME280;65652;53.132;18.026;2023-07-20T08:45:36;100524.60;;;25.10;41.56
76728;BME280;65652;53.132;18.026;2023-07-20T08:48:03;100523.86;;;25.28;41.19
76728;BME280;65652;53.132;18.026;2023-07-20T08:50:31;100521.80;;;25.21;40.99
76728;BME280;65652;53.132;18.026;2023-07-20T08:52:58;100527.95;;;25.02;40.55
76728;BME280;65652;53.132;18.026;2023-07-20T08:55:29;100523.20;;;24.39;41.01
76728;BME280;65652;53.132;18.026;2023-07-20T08:57:56;100529.73;;;23.95;41.97
76728;BME280;65652;53.132;18.026;2023-07-20T09:00:23;100536.90;;;23.65;42.03
76728;BME280;65652;53.132;18.026;2023-07-20T09:02:51;100536.20;;;23.30;42.39
76728;BME280;65652;53.132;18.026;2023-07-20T09:05:18;100530.21;;;23.02;43.26
76728;BME280;65652;53.132;18.026;2023-07-20T09:07:44;100531.53;;;23.26;43.23
76728;BME280;65652;53.132;18.026;2023-07-20T09:10:11;100528.02;;;23.76;42.51
76728;BME280;65652;53.132;18.026;2023-07-20T09:12:41;100515.65;;;24.21;42.12
76728;BME280;65652;53.132;18.026;2023-07-20T09:15:09;100511.48;;;24.39;41.58
76728;BME280;65652;53.132;18.026;2023-07-20T09:17:36;100513.27;;;24.57;41.45
76728;BME280;65652;53.132;18.026;2023-07-20T09:20:05;100514.66;;;24.89;40.24
76728;BME280;65652;53.132;18.026;2023-07-20T09:22:34;100511.80;;;25.16;39.49
76728;BME280;65652;53.132;18.026;2023-07-20T09:25:00;100506.09;;;25.35;38.67
76728;BME280;65652;53.132;18.026;2023-07-20T09:27:37;100505.43;;;25.49;38.62
76728;BME280;65652;53.132;18.026;2023-07-20T09:30:04;100509.48;;;25.82;37.91
76728;BME280;65652;53.132;18.026;2023-07-20T09:32:45;100504.65;;;26.09;37.29
76728;BME280;65652;53.132;18.026;2023-07-20T09:35:15;100497.41;;;26.38;36.65
76728;BME280;65652;53.132;18.026;2023-07-20T09:38:11;100489.36;;;26.71;36.52
76728;BME280;65652;53.132;18.026;2023-07-20T09:40:37;100489.84;;;26.90;35.66
76728;BME280;65652;53.132;18.026;2023-07-20T09:43:07;100494.12;;;26.61;35.97
76728;BME280;65652;53.132;18.026;2023-07-20T09:45:34;100492.19;;;26.65;36.34
76728;BME280;65652;53.132;18.026;2023-07-20T09:48:05;100495.10;;;26.47;36.12
76728;BME280;65652;53.132;18.026;2023-07-20T09:50:42;100491.99;;;26.56;35.97
76728;BME280;65652;53.132;18.026;2023-07-20T09:53:12;100490.29;;;26.85;35.56
76728;BME280;65652;53.132;18.026;2023-07-20T09:55:40;100485.22;;;26.76;35.10
76728;BME280;65652;53.132;18.026;2023-07-20T09:58:09;100490.45;;;26.45;35.58
76728;BME280;65652;53.132;18.026;2023-07-20T10:00:39;100485.28;;;26.73;35.65
76728;BME280;65652;53.132;18.026;2023-07-20T10:03:07;100486.80;;;27.15;34.74
76728;BME280;65652;53.132;18.026;2023-07-20T10:05:35;100485.65;;;27.46;34.52
76728;BME280;65652;53.132;18.026;2023-07-20T10:08:02;100480.41;;;27.69;32.80
76728;BME280;65652;53.132;18.026;2023-07-20T10:10:33;100484.86;;;27.58;33.08
76728;BME280;65652;53.132;18.026;2023-07-20T10:13:01;100482.11;;;27.56;33.34
76728;BME280;65652;53.132;18.026;2023-07-20T10:15:40;100477.95;;;27.84;33.15
76728;BME280;65652;53.132;18.026;2023-07-20T10:18:17;100474.84;;;27.99;32.45
76728;BME280;65652;53.132;18.026;2023-07-20T10:20:44;100471.58;;;27.88;32.86
76728;BME280;65652;53.132;18.026;2023-07-20T10:23:12;100470.77;;;27.71;33.31
76728;BME280;65652;53.132;18.026;2023-07-20T10:25:39;100464.79;;;28.00;32.49
76728;BME280;65652;53.132;18.026;2023-07-20T10:28:07;100467.49;;;28.11;31.75
76728;BME280;65652;53.132;18.026;2023-07-20T10:30:34;100465.80;;;28.07;31.53
76728;BME280;65652;53.132;18.026;2023-07-20T10:33:04;100465.37;;;27.82;32.40
76728;BME280;65652;53.132;18.026;2023-07-20T10:35:31;100464.78;;;27.48;32.84
76728;BME280;65652;53.132;18.026;2023-07-20T10:38:15;100467.92;;;27.31;33.04
76728;BME280;65652;53.132;18.026;2023-07-20T10:40:42;100468.98;;;26.86;33.44
76728;BME280;65652;53.132;18.026;2023-07-20T10:43:09;100461.84;;;26.42;33.93
76728;BME280;65652;53.132;18.026;2023-07-20T10:48:05;100463.90;;;25.81;34.47
76728;BME280;65652;53.132;18.026;2023-07-20T10:50:33;100465.81;;;25.77;35.11
76728;BME280;65652;53.132;18.026;2023-07-20T10:53:18;100467.64;;;25.99;34.70
76728;BME280;65652;53.132;18.026;2023-07-20T10:55:44;100466.40;;;25.99;34.23
76728;BME280;65652;53.132;18.026;2023-07-20T10:58:14;100465.25;;;26.10;34.11
76728;BME280;65652;53.132;18.026;2023-07-20T11:01:01;100465.58;;;25.81;34.82
76728;BME280;65652;53.132;18.026;2023-07-20T11:03:34;100462.23;;;25.72;35.48
76728;BME280;65652;53.132;18.026;2023-07-20T11:11:25;100451.23;;;27.34;34.24
76728;BME280;65652;53.132;18.026;2023-07-20T11:14:20;100441.55;;;27.92;33.15
76728;BME280;65652;53.132;18.026;2023-07-20T11:16:48;100444.80;;;27.94;32.79
76728;BME280;65652;53.132;18.026;2023-07-20T11:19:16;100447.49;;;27.77;33.06
76728;BME280;65652;53.132;18.026;2023-07-20T11:21:44;100447.48;;;27.49;33.36
76728;BME280;65652;53.132;18.026;2023-07-20T11:24:10;100448.11;;;27.10;33.26
76728;BME280;65652;53.132;18.026;2023-07-20T11:26:40;100449.61;;;26.68;33.80
76728;BME280;65652;53.132;18.026;2023-07-20T11:29:06;100442.36;;;26.20;34.54
76728;BME280;65652;53.132;18.026;2023-07-20T11:31:35;100443.56;;;25.91;35.19
76728;BME280;65652;53.132;18.026;2023-07-20T11:34:02;100446.74;;;25.76;35.24
76728;BME280;65652;53.132;18.026;2023-07-20T11:36:28;100439.58;;;25.51;35.62
76728;BME280;65652;53.132;18.026;2023-07-20T11:38:54;100438.45;;;25.39;36.03
76728;BME280;65652;53.132;18.026;2023-07-20T11:41:20;100444.53;;;25.23;36.47
76728;BME280;65652;53.132;18.026;2023-07-20T11:43:47;100449.77;;;24.92;36.57
76728;BME280;65652;53.132;18.026;2023-07-20T11:46:13;100473.61;;;24.60;37.61
76728;BME280;65652;53.132;18.026;2023-07-20T11:48:39;100486.02;;;24.18;40.56
76728;BME280;65652;53.132;18.026;2023-07-20T11:51:05;100505.90;;;23.69;43.86
76728;BME280;65652;53.132;18.026;2023-07-20T11:53:32;100524.85;;;23.16;48.01
76728;BME280;65652;53.132;18.026;2023-07-20T11:56:01;100544.52;;;22.53;48.77
76728;BME280;65652;53.132;18.026;2023-07-20T11:58:27;100548.55;;;21.95;50.05
76728;BME280;65652;53.132;18.026;2023-07-20T12:00:54;100557.08;;;21.53;51.22
76728;BME280;65652;53.132;18.026;2023-07-20T12:03:20;100573.11;;;21.17;52.48
76728;BME280;65652;53.132;18.026;2023-07-20T12:05:46;100568.36;;;20.83;52.86
76728;BME280;65652;53.132;18.026;2023-07-20T12:08:13;100559.85;;;20.66;54.08
76728;BME280;65652;53.132;18.026;2023-07-20T12:10:40;100562.74;;;20.58;54.75
76728;BME280;65652;53.132;18.026;2023-07-20T12:13:10;100558.16;;;20.50;55.59
76728;BME280;65652;53.132;18.026;2023-07-20T12:15:39;100564.58;;;20.48;55.81
76728;BME280;65652;53.132;18.026;2023-07-20T12:18:05;100567.73;;;20.50;56.00
76728;BME280;65652;53.132;18.026;2023-07-20T12:20:36;100560.05;;;20.46;56.37
76728;BME280;65652;53.132;18.026;2023-07-20T12:23:04;100556.45;;;20.40;56.86
76728;BME280;65652;53.132;18.026;2023-07-20T12:25:39;100561.55;;;20.41;57.33
76728;BME280;65652;53.132;18.026;2023-07-20T12:28:08;100559.75;;;20.53;57.57
76728;BME280;65652;53.132;18.026;2023-07-20T12:30:34;100559.27;;;20.76;57.51
76728;BME280;65652;53.132;18.026;2023-07-20T12:33:02;100559.34;;;20.85;57.39
76728;BME280;65652;53.132;18.026;2023-07-20T12:35:29;100567.30;;;20.84;57.48
76728;BME280;65652;53.132;18.026;2023-07-20T12:37:55;100564.27;;;20.83;57.52
76728;BME280;65652;53.132;18.026;2023-07-20T12:40:22;100563.55;;;20.83;57.52
76728;BME280;65652;53.132;18.026;2023-07-20T12:42:48;100558.19;;;20.87;58.07
76728;BME280;65652;53.132;18.026;2023-07-20T12:45:14;100555.34;;;20.93;57.87
76728;BME280;65652;53.132;18.026;2023-07-20T12:47:41;100561.23;;;20.99;58.41
76728;BME280;65652;53.132;18.026;2023-07-20T12:50:12;100558.39;;;21.00;58.94
76728;BME280;65652;53.132;18.026;2023-07-20T12:52:39;100558.17;;;20.99;59.25
76728;BME280;65652;53.132;18.026;2023-07-20T12:55:07;100558.69;;;21.02;59.76
76728;BME280;65652;53.132;18.026;2023-07-20T12:57:35;100555.54;;;21.02;59.75
76728;BME280;65652;53.132;18.026;2023-07-20T13:00:05;100553.00;;;21.14;59.90
76728;BME280;65652;53.132;18.026;2023-07-20T13:02:33;100541.52;;;21.73;59.88